Time;durP1;ratioP1;P1;durP2;ratioP2;P2;SDS_P1;SDS_P2;PMS_P1;PMS_P2;Temp;Humidity;BMP_temperature;BMP_pressure;BME280_temperature;BME280_humidity;BME280_pressure;Samples;Min_cycle;Max_cycle;Signal;HPM_P1;HPM_P2
2023/04/02 00:01:21;;;;;;;8.02;2.70;;;;;;;2.41;100.00;100664.22;6067310;28;20033;-71
2023/04/02 00:04:22;;;;;;;8.15;2.90;;;;;;;2.27;100.00;100653.78;6051077;28;20033;-71
2023/04/02 00:07:29;;;;;;;10.02;3.28;;;;;;;2.31;100.00;100663.94;6059917;28;20112;-71
2023/04/02 00:10:31;;;;;;;9.32;2.78;;;;;;;2.40;100.00;100668.59;6075673;28;20029;-72
2023/04/02 00:13:35;;;;;;;8.60;3.63;;;;;;;2.35;100.00;100675.06;6057627;28;20049;-71
2023/04/02 00:16:32;;;;;;;7.88;2.47;;;;;;;2.15;100.00;100673.66;6077586;28;20043;-72
2023/04/02 00:19:35;;;;;;;6.07;2.30;;;;;;;2.30;100.00;100696.28;6084414;28;20044;-70
2023/04/02 00:22:32;;;;;;;8.75;2.10;;;;;;;2.28;100.00;100694.69;6050701;28;20025;-71
2023/04/02 00:25:33;;;;;;;5.00;2.10;;;;;;;2.26;100.00;100697.41;6046546;28;20434;-71
2023/04/02 00:28:29;;;;;;;13.60;3.20;;;;;;;2.18;100.00;100702.25;6051573;28;20045;-71
2023/04/02 00:31:24;;;;;;;5.60;2.17;;;;;;;2.19;100.00;100709.19;6051045;28;20034;-71
2023/04/02 00:34:23;;;;;;;17.08;4.18;;;;;;;2.20;100.00;100713.44;6050818;28;20041;-71
2023/04/02 00:37:22;;;;;;;9.35;2.80;;;;;;;2.08;100.00;100724.66;6049966;28;20030;-71
2023/04/02 00:40:26;;;;;;;6.25;2.00;;;;;;;2.21;100.00;100725.63;6051166;28;20111;-71
2023/04/02 00:43:23;;;;;;;4.88;1.80;;;;;;;2.10;100.00;100719.34;6077094;28;20064;-71
2023/04/02 00:46:22;;;;;;;7.65;2.75;;;;;;;2.12;100.00;100731.38;6072893;28;20402;-71
2023/04/02 00:49:21;;;;;;;5.50;2.30;;;;;;;2.11;100.00;100732.34;6047129;28;20038;-71
2023/04/02 00:52:21;;;;;;;6.22;1.85;;;;;;;2.06;100.00;100746.63;6033077;28;20423;-71
2023/04/02 00:55:21;;;;;;;6.55;1.88;;;;;;;2.14;100.00;100758.31;6049940;28;20044;-71
2023/04/02 00:58:29;;;;;;;15.57;5.90;;;;;;;2.04;100.00;100744.09;6058493;28;20041;-71
2023/04/02 01:01:35;;;;;;;8.73;3.13;;;;;;;2.09;100.00;100765.56;6089450;28;20537;-71
2023/04/02 01:04:35;;;;;;;4.13;1.67;;;;;;;2.06;99.47;100776.22;6049507;28;20038;-71
2023/04/02 01:07:49;;;;;;;5.43;1.60;;;;;;;2.09;99.21;100767.38;6051371;28;20487;-70
2023/04/02 01:11:06;;;;;;;4.40;1.23;;;;;;;2.05;98.02;100784.16;6033608;28;20083;-71
2023/04/02 01:14:17;;;;;;;4.32;1.40;;;;;;;2.07;98.18;100783.13;6032090;28;20042;-71
2023/04/02 01:17:34;;;;;;;3.47;1.50;;;;;;;2.05;98.31;100789.38;6032220;28;20124;-70
2023/04/02 01:20:51;;;;;;;2.65;1.20;;;;;;;1.99;98.45;100794.97;6048844;28;20032;-71
2023/04/02 01:23:51;;;;;;;5.93;1.73;;;;;;;1.97;97.97;100810.75;6051549;28;20092;-71
2023/04/02 01:27:07;;;;;;;3.63;1.70;;;;;;;2.04;98.25;100804.22;6032588;28;20041;-71
2023/04/02 01:30:06;;;;;;;3.70;1.45;;;;;;;1.93;98.36;100792.72;6049560;28;20399;-71
2023/04/02 01:33:02;;;;;;;6.18;1.85;;;;;;;2.00;98.66;100810.59;6064912;28;20117;-72
2023/04/02 01:36:17;;;;;;;4.55;2.17;;;;;;;1.91;98.81;100795.41;6048464;28;20739;-71
2023/04/02 01:39:38;;;;;;;21.02;4.30;;;;;;;1.89;98.02;100807.75;6032330;28;20030;-73
2023/04/02 01:42:44;;;;;;;7.40;2.55;;;;;;;1.95;98.82;100820.47;6051134;28;20444;-70
2023/04/02 01:45:39;;;;;;;7.40;2.05;;;;;;;2.07;98.19;100837.19;6061675;28;20033;-70
2023/04/02 01:48:35;;;;;;;7.80;2.17;;;;;;;1.89;98.44;100823.44;6064500;28;20111;-71
2023/04/02 01:51:32;;;;;;;5.47;1.90;;;;;;;2.02;99.67;100834.84;6050172;28;20030;-71
2023/04/02 01:54:28;;;;;;;3.00;1.75;;;;;;;2.05;100.00;100847.75;6047900;28;20034;-70
2023/04/02 01:57:24;;;;;;;7.50;1.90;;;;;;;2.02;100.00;100847.94;6049508;28;20406;-70
2023/04/02 02:00:21;;;;;;;6.60;1.92;;;;;;;1.99;99.95;100852.50;6049198;28;20040;-71
2023/04/02 02:03:17;;;;;;;3.53;1.00;;;;;;;2.01;99.55;100872.38;6063608;28;20162;-70
2023/04/02 02:06:14;;;;;;;8.00;1.77;;;;;;;1.87;100.00;100859.28;6049069;28;20022;-70
2023/04/02 02:09:25;;;;;;;3.78;1.30;;;;;;;1.90;98.77;100877.41;6031293;28;20044;-71
2023/04/02 02:12:21;;;;;;;8.38;1.33;;;;;;;1.87;97.97;100877.59;6048885;28;20041;-70
2023/04/02 02:15:19;;;;;;;4.75;1.20;;;;;;;1.90;96.46;100893.09;6048294;28;20042;-69
2023/04/02 02:18:19;;;;;;;3.42;1.35;;;;;;;1.83;96.23;100883.91;6049343;28;20029;-70
2023/04/02 02:21:36;;;;;;;5.03;1.65;;;;;;;1.84;95.94;100888.22;6049079;28;20120;-70
2023/04/02 02:24:32;;;;;;;3.17;1.33;;;;;;;1.84;96.02;100898.66;6031017;28;20038;-70
2023/04/02 02:27:27;;;;;;;5.88;1.60;;;;;;;1.96;95.78;100912.81;6048958;28;20098;-70
2023/04/02 02:30:29;;;;;;;9.77;1.93;;;;;;;1.88;96.54;100901.94;6048586;28;20053;-71
2023/04/02 02:33:26;;;;;;;11.88;2.20;;;;;;;1.96;96.80;100924.09;6043902;28;20030;-70
2023/04/02 02:36:25;;;;;;;7.63;3.13;;;;;;;2.04;98.89;100931.53;6050323;28;20379;-70
2023/04/02 02:39:23;;;;;;;3.60;1.13;;;;;;;1.91;97.20;100925.28;6069920;28;20479;-69
2023/04/02 02:42:26;;;;;;;3.20;1.30;;;;;;;1.99;97.03;100942.25;6049431;28;20077;-69
2023/04/02 02:45:25;;;;;;;4.00;1.05;;;;;;;1.96;95.95;100945.03;6031196;28;20038;-70
2023/04/02 02:48:24;;;;;;;3.53;1.17;;;;;;;1.82;95.31;100936.28;6048655;28;20034;-70
2023/04/02 02:51:25;;;;;;;3.70;1.30;;;;;;;1.84;94.00;100945.72;6063728;28;20038;-70
2023/04/02 02:54:21;;;;;;;6.75;2.28;;;;;;;1.95;94.16;100953.81;6030409;28;20647;-70
2023/04/02 02:57:32;;;;;;;4.55;1.83;;;;;;;1.88;94.44;100960.28;6048673;28;20037;-70
2023/04/02 03:00:27;;;;;;;2.58;1.10;;;;;;;1.91;93.77;100957.50;6048831;28;20096;-70
2023/04/02 03:03:26;;;;;;;3.85;1.42;;;;;;;1.93;94.75;100965.28;6047893;28;20445;-70
2023/04/02 03:06:21;;;;;;;5.70;1.27;;;;;;;1.90;94.65;100968.06;6052738;28;20026;-70
2023/04/02 03:09:35;;;;;;;5.73;1.30;;;;;;;2.06;94.90;100980.22;6039504;28;20768;-70
2023/04/02 03:12:37;;;;;;;3.67;1.08;;;;;;;2.02;95.32;100983.91;6070184;28;20030;-71
2023/04/02 03:15:59;;;;;;;2.92;1.10;;;;;;;1.96;93.85;100989.47;6058643;28;20567;-70
2023/04/02 03:19:21;;;;;;;2.85;0.98;;;;;;;1.95;94.67;100990.41;6053944;28;20474;-70
2023/04/02 03:22:25;;;;;;;6.53;1.13;;;;;;;1.90;92.93;100996.81;6063946;28;20037;-70
2023/04/02 03:25:23;;;;;;;5.63;1.30;;;;;;;1.93;94.14;100996.66;6052076;28;20042;-70
2023/04/02 03:28:22;;;;;;;6.35;1.15;;;;;;;1.86;93.05;101004.00;6052616;28;20053;-69
2023/04/02 03:31:30;;;;;;;5.20;1.52;;;;;;;1.88;92.46;101017.81;6035376;28;20035;-70
2023/04/02 03:34:31;;;;;;;2.38;0.80;;;;;;;1.92;92.85;101039.41;6034245;28;20483;-70
2023/04/02 03:37:28;;;;;;;;;;;;;;;1.94;93.05;101043.63;6059741;28;20037;-69
2023/04/02 03:40:29;;;;;;;2.00;1.30;;;;;;;1.89;93.16;101032.59;6091775;28;19913;-70
2023/04/02 03:43:30;;;;;;;4.25;1.33;;;;;;;1.94;92.34;101046.25;6068985;28;20111;-70
2023/04/02 03:46:38;;;;;;;5.75;0.90;;;;;;;2.05;92.34;101063.97;6076174;28;20037;-70
2023/04/02 03:49:47;;;;;;;4.50;1.27;;;;;;;1.91;91.05;101049.03;6058106;28;20409;-70
2023/04/02 03:52:42;;;;;;;10.98;4.03;;;;;;;2.01;90.93;101068.50;6091276;28;20045;-70
2023/04/02 03:55:38;;;;;;;7.33;2.13;;;;;;;1.91;90.97;101061.25;6074708;28;20060;-70
2023/04/02 03:58:40;;;;;;;3.78;1.50;;;;;;;1.91;89.90;101059.47;6091254;28;20091;-70
2023/04/02 04:01:47;;;;;;;3.55;1.50;;;;;;;2.05;90.11;101085.75;6034769;28;20034;-70
2023/04/02 04:04:43;;;;;;;8.93;2.65;;;;;;;1.96;89.40;101070.53;6050281;28;20038;-70
2023/04/02 04:07:40;;;;;;;10.43;2.20;;;;;;;1.98;90.09;101079.16;6078617;28;20030;-70
2023/04/02 04:10:35;;;;;;;3.42;0.93;;;;;;;1.93;89.19;101080.34;6071267;28;20030;-70
2023/04/02 04:13:39;;;;;;;2.17;1.02;;;;;;;2.00;88.86;101105.22;6050974;28;20034;-70
2023/04/02 04:16:52;;;;;;;4.35;1.30;;;;;;;1.90;89.16;101097.03;6049791;28;20030;-70
2023/04/02 04:19:56;;;;;;;6.38;1.90;;;;;;;1.88;88.75;101093.63;6034097;28;20057;-70
2023/04/02 04:22:56;;;;;;;5.18;1.48;;;;;;;1.95;89.22;101112.47;6049670;28;20087;-70
2023/04/02 04:26:08;;;;;;;10.43;2.90;;;;;;;2.07;91.08;101128.34;6050366;28;20034;-70
2023/04/02 04:29:25;;;;;;;2.78;1.13;;;;;;;2.04;88.87;101136.34;6050985;28;20038;-69
2023/04/02 04:32:30;;;;;;;2.78;1.08;;;;;;;2.03;88.57;101129.44;6050713;28;20025;-70
2023/04/02 04:35:37;;;;;;;4.45;1.15;;;;;;;2.04;89.00;101131.09;6046719;28;20042;-70
2023/04/02 04:38:38;;;;;;;1.70;1.00;;;;;;;1.97;88.75;101129.75;6066180;28;20099;-70
2023/04/02 04:41:36;;;;;;;2.58;1.20;;;;;;;2.07;88.69;101146.63;6050061;28;20041;-70
2023/04/02 04:44:40;;;;;;;0.95;0.57;;;;;;;2.04;89.32;101154.66;6049250;28;20541;-70
2023/04/02 04:47:38;;;;;;;5.93;1.45;;;;;;;2.02;89.53;101153.88;6049108;28;20034;-70
2023/04/02 04:50:48;;;;;;;3.42;1.30;;;;;;;2.12;88.91;101176.00;6049379;28;20041;-70
2023/04/02 04:53:49;;;;;;;4.68;0.93;;;;;;;2.05;88.47;101173.81;6025949;28;20039;-70
2023/04/02 04:56:47;;;;;;;3.63;1.10;;;;;;;2.02;87.99;101174.81;6059243;28;20029;-69
2023/04/02 04:59:49;;;;;;;3.15;1.23;;;;;;;1.99;88.04;101180.19;6079113;28;20094;-70
2023/04/02 05:02:47;;;;;;;1.60;0.90;;;;;;;1.98;88.36;101183.75;6065042;28;20034;-70
2023/04/02 05:05:43;;;;;;;7.35;1.00;;;;;;;2.01;88.50;101190.59;6031813;28;20036;-70
2023/04/02 05:08:43;;;;;;;3.75;1.05;;;;;;;2.01;87.49;101201.06;6032181;28;20034;-70
2023/04/02 05:12:06;;;;;;;4.15;1.55;;;;;;;2.07;87.85;101204.19;6050862;28;20091;-70
2023/04/02 05:15:11;;;;;;;22.88;6.28;;;;;;;2.08;87.55;101211.13;6049338;28;20395;-69
2023/04/02 05:18:17;;;;;;;10.68;4.30;;;;;;;2.09;88.22;101219.81;6032551;28;20076;-70
2023/04/02 05:21:19;;;;;;;4.07;1.67;;;;;;;2.04;87.96;101214.78;6031982;28;20042;-70
2023/04/02 05:24:35;;;;;;;3.95;1.73;;;;;;;2.13;88.88;101235.25;6064455;28;20088;-70
2023/04/02 05:27:51;;;;;;;3.25;1.00;;;;;;;2.12;88.69;101244.00;6040721;28;20037;-70
2023/04/02 05:30:51;;;;;;;2.00;1.20;;;;;;;2.12;88.73;101243.19;6058507;28;20084;-70
2023/04/02 05:33:47;;;;;;;3.28;1.30;;;;;;;2.06;88.02;101239.13;6049040;28;20038;-70
2023/04/02 05:36:45;;;;;;;2.03;1.00;;;;;;;2.23;88.72;101262.63;6031853;28;20537;-71
2023/04/02 05:39:44;;;;;;;3.15;1.17;;;;;;;2.14;88.65;101257.88;6049415;28;20026;-70
2023/04/02 05:42:42;;;;;;;2.50;0.80;;;;;;;2.16;86.21;101266.47;6049285;28;20037;-70
2023/04/02 05:45:40;;;;;;;4.28;0.90;;;;;;;2.15;87.37;101266.53;6047763;28;20087;-70
2023/04/02 05:48:38;;;;;;;5.40;1.30;;;;;;;2.11;87.18;101260.66;6032015;28;20368;-70
2023/04/02 05:51:45;;;;;;;2.47;0.95;;;;;;;2.16;87.18;101273.47;6066219;28;20032;-70
2023/04/02 05:54:47;;;;;;;2.65;1.02;;;;;;;2.28;86.67;101278.09;6078903;28;20041;-70
2023/04/02 05:57:50;;;;;;;5.05;0.93;;;;;;;2.32;86.76;101283.06;6031789;28;20041;-70
2023/04/02 06:01:03;;;;;;;1.77;0.93;;;;;;;2.37;86.54;101296.75;6048933;28;20038;-70
2023/04/02 06:04:05;;;;;;;14.55;5.30;;;;;;;2.36;85.63;101289.00;6070807;28;20045;-70
2023/04/02 06:07:07;;;;;;;9.52;3.03;;;;;;;2.45;84.31;101308.63;6037141;28;20061;-70
2023/04/02 06:10:09;;;;;;;3.42;0.90;;;;;;;2.33;84.04;101300.47;6031508;28;20053;-70
2023/04/02 06:13:05;;;;;;;;;;;;;;;2.48;84.04;101325.00;6057951;28;20033;-70
2023/04/02 06:16:01;;;;;;;4.03;1.00;;;;;;;2.48;84.43;101326.75;6031095;28;19917;-69
2023/04/02 06:18:56;;;;;;;2.13;0.98;;;;;;;2.43;85.20;101337.47;6031718;28;20045;-69
2023/04/02 06:21:58;;;;;;;3.22;1.00;;;;;;;2.44;83.32;101338.31;6048848;28;20064;-70
2023/04/02 06:25:25;;;;;;;3.47;1.00;;;;;;;2.40;83.66;101330.63;6031475;28;20045;-70
2023/04/02 06:28:26;;;;;;;2.42;0.98;;;;;;;2.40;83.66;101348.09;6047970;28;20045;-70
2023/04/02 06:31:41;;;;;;;3.05;0.80;;;;;;;2.45;84.20;101363.59;6064206;28;20038;-70
2023/04/02 06:34:38;;;;;;;3.95;1.33;;;;;;;2.39;84.78;101357.72;6048182;28;20033;-70
2023/04/02 06:37:39;;;;;;;1.85;0.73;;;;;;;2.42;83.67;101361.13;6048551;28;20053;-70
2023/04/02 06:40:52;;;;;;;3.30;1.02;;;;;;;2.39;82.53;101370.78;6035356;28;20386;-70
2023/04/02 06:43:54;;;;;;;2.70;1.15;;;;;;;2.58;82.61;101385.56;6068367;28;20386;-70
2023/04/02 06:46:53;;;;;;;2.80;0.90;;;;;;;2.49;82.88;101365.09;6035723;28;20045;-69
2023/04/02 06:49:54;;;;;;;3.08;1.00;;;;;;;2.55;84.21;101367.41;6035743;28;20502;-70
2023/04/02 06:52:51;;;;;;;1.63;0.80;;;;;;;2.54;83.26;101381.41;6035047;28;20033;-69
2023/04/02 06:55:49;;;;;;;3.65;1.25;;;;;;;2.56;83.13;101385.63;6052023;28;20441;-69
2023/04/02 06:58:45;;;;;;;3.58;1.02;;;;;;;2.61;82.65;101385.41;6052841;28;20041;-70
2023/04/02 07:02:01;;;;;;;3.53;1.10;;;;;;;2.80;81.65;101413.16;6068381;28;20104;-70
2023/04/02 07:05:02;;;;;;;1.42;0.73;;;;;;;2.88;81.19;101415.41;6069224;28;20285;-70
2023/04/02 07:07:57;;;;;;;3.22;0.77;;;;;;;2.88;83.01;101416.22;6052429;28;20045;-70
2023/04/02 07:10:54;;;;;;;2.70;1.00;;;;;;;2.87;83.27;101406.72;6052818;28;20052;-70
2023/04/02 07:13:49;;;;;;;2.17;0.85;;;;;;;2.90;83.26;101422.25;6065094;28;20057;-70
2023/04/02 07:16:45;;;;;;;2.65;0.90;;;;;;;2.98;83.57;101430.56;6054743;28;20117;-70
2023/04/02 07:19:40;;;;;;;3.90;1.10;;;;;;;2.99;84.77;101431.38;6063691;28;20079;-69
2023/04/02 07:22:36;;;;;;;3.22;1.05;;;;;;;2.93;83.99;101434.34;6056319;28;20038;-70
2023/04/02 07:25:31;;;;;;;3.97;1.03;;;;;;;2.97;84.47;101433.25;6051491;28;20061;-70
2023/04/02 07:28:27;;;;;;;3.00;1.20;;;;;;;2.90;84.07;101442.38;6056087;28;20053;-70
2023/04/02 07:31:25;;;;;;;23.27;6.40;;;;;;;3.01;83.60;101471.47;6053568;28;20064;-69
2023/04/02 07:34:20;;;;;;;16.52;5.97;;;;;;;3.02;84.28;101477.56;6050387;28;20034;-70
2023/04/02 07:37:15;;;;;;;7.30;2.03;;;;;;;2.93;84.51;101463.16;6050974;28;20384;-70
2023/04/02 07:40:19;;;;;;;7.03;1.80;;;;;;;3.07;85.58;101488.66;6055705;28;20087;-69
2023/04/02 07:43:15;;;;;;;4.90;1.45;;;;;;;2.90;84.64;101484.28;6054429;28;20048;-70
2023/04/02 07:46:13;;;;;;;3.95;1.63;;;;;;;3.04;85.68;101486.19;6051376;28;20046;-70
2023/04/02 07:49:09;;;;;;;2.90;0.95;;;;;;;3.01;85.00;101492.44;6051151;28;20065;-70
2023/04/02 07:52:04;;;;;;;2.58;1.33;;;;;;;2.95;85.21;101504.06;6049982;28;20398;-70
2023/04/02 07:55:00;;;;;;;5.63;1.65;;;;;;;2.97;85.33;101499.59;6050084;28;20490;-70
2023/04/02 07:57:57;;;;;;;2.63;1.00;;;;;;;3.01;85.81;101516.00;6051260;28;20036;-69
2023/04/02 08:00:52;;;;;;;2.40;1.10;;;;;;;3.04;84.96;101522.84;6050429;28;20128;-69
2023/04/02 08:03:48;;;;;;;6.67;2.70;;;;;;;2.97;85.12;101517.06;6053934;28;20528;-69
2023/04/02 08:06:43;;;;;;;4.15;1.52;;;;;;;3.00;85.10;101527.41;6050587;28;20581;-70
2023/04/02 08:09:38;;;;;;;2.38;1.02;;;;;;;3.05;84.47;101541.09;6049697;28;20041;-69
2023/04/02 08:12:34;;;;;;;5.00;1.47;;;;;;;3.09;84.01;101531.31;6053768;28;20038;-70
2023/04/02 08:15:29;;;;;;;6.13;1.67;;;;;;;3.14;83.92;101532.78;6049459;28;20117;-69
2023/04/02 08:18:24;;;;;;;6.30;1.43;;;;;;;3.21;82.30;101536.78;6050006;28;20029;-69
2023/04/02 08:21:20;;;;;;;3.90;1.40;;;;;;;3.28;83.87;101553.88;6049906;28;20038;-70
2023/04/02 08:24:19;;;;;;;6.63;1.98;;;;;;;3.24;84.85;101549.72;6049765;28;20284;-70
2023/04/02 08:27:15;;;;;;;1.70;1.20;;;;;;;3.19;82.81;101564.84;6050854;28;20026;-70
2023/04/02 08:30:11;;;;;;;4.78;1.67;;;;;;;3.15;82.43;101560.69;6058632;28;20458;-70
2023/04/02 08:33:06;;;;;;;5.38;1.55;;;;;;;3.33;84.16;101574.63;6050799;28;20115;-70
2023/04/02 08:36:02;;;;;;;7.00;1.80;;;;;;;3.35;83.63;101581.47;6050188;28;20041;-70
2023/04/02 08:38:57;;;;;;;1.70;0.70;;;;;;;3.10;82.77;101560.06;6050522;28;20118;-71
2023/04/02 08:42:02;;;;;;;4.27;1.60;;;;;;;3.32;82.61;101586.88;6052010;28;20359;-71
2023/04/02 08:45:05;;;;;;;4.80;2.00;;;;;;;3.44;82.06;101604.59;6069361;28;20405;-71
2023/04/02 08:48:02;;;;;;;12.55;3.42;;;;;;;3.48;81.36;101607.88;6033859;28;20053;-71
2023/04/02 08:50:58;;;;;;;8.20;2.47;;;;;;;3.32;80.92;101594.72;6050147;28;20037;-71
2023/04/02 08:53:56;;;;;;;15.57;5.22;;;;;;;3.30;81.44;101617.56;6032489;28;20026;-71
2023/04/02 08:57:06;;;;;;;3.38;1.75;;;;;;;3.40;80.74;101608.28;6064792;28;20034;-70
2023/04/02 09:00:21;;;;;;;8.70;2.22;;;;;;;3.38;80.41;101607.53;6065635;28;20108;-71
2023/04/02 09:03:20;;;;;;;4.45;1.13;;;;;;;3.37;80.40;101624.16;6049789;28;20175;-70
2023/04/02 09:06:18;;;;;;;5.00;1.40;;;;;;;3.38;80.61;101604.91;6032060;28;20046;-71
2023/04/02 09:09:14;;;;;;;3.45;0.98;;;;;;;3.48;78.11;101621.84;6050447;28;20471;-71
2023/04/02 09:12:23;;;;;;;4.55;2.05;;;;;;;3.41;77.79;101617.84;6049883;28;20046;-71
2023/04/02 09:15:30;;;;;;;5.07;1.30;;;;;;;3.45;78.12;101629.03;6048285;28;20034;-70
2023/04/02 09:18:26;;;;;;;;;;;;;;;3.57;78.80;101645.00;6032862;28;20041;-71
2023/04/02 09:21:40;;;;;;;4.07;1.23;;;;;;;3.58;78.98;101641.44;6064742;28;20294;-71
2023/04/02 09:24:36;;;;;;;2.75;0.93;;;;;;;3.65;79.71;101648.97;6063989;28;20466;-72
2023/04/02 09:27:33;;;;;;;5.75;1.70;;;;;;;3.74;79.57;101643.25;6050529;28;20030;-70
2023/04/02 09:30:36;;;;;;;3.25;1.20;;;;;;;3.75;79.24;101668.56;6051752;28;20042;-71
2023/04/02 09:33:41;;;;;;;2.88;1.02;;;;;;;3.85;78.55;101673.28;6044965;28;20030;-71
2023/04/02 09:36:38;;;;;;;3.00;1.30;;;;;;;3.77;76.37;101661.47;6054542;28;20117;-71
2023/04/02 09:39:34;;;;;;;2.75;1.10;;;;;;;3.89;75.35;101660.81;6057158;28;20130;-71
2023/04/02 09:42:35;;;;;;;2.50;0.80;;;;;;;3.98;75.15;101669.06;6049952;28;20053;-71
2023/04/02 09:45:30;;;;;;;4.05;1.50;;;;;;;4.10;74.83;101683.34;6048698;28;20152;-71
2023/04/02 09:48:42;;;;;;;2.20;1.00;;;;;;;4.19;73.41;101683.66;6049745;28;20041;-70
2023/04/02 09:51:38;;;;;;;3.72;1.15;;;;;;;4.26;72.42;101689.47;6048041;28;20033;-70
2023/04/02 09:54:40;;;;;;;7.23;1.87;;;;;;;4.30;71.73;101713.75;6048622;28;20445;-70
2023/04/02 09:57:37;;;;;;;2.08;1.10;;;;;;;4.29;72.80;101696.31;6049575;28;20041;-70
2023/04/02 10:00:33;;;;;;;3.58;1.27;;;;;;;4.38;71.36;101704.53;6048478;28;20471;-71
2023/04/02 10:03:31;;;;;;;4.07;1.40;;;;;;;4.30;70.12;101714.59;6030264;28;20056;-71
2023/04/02 10:06:28;;;;;;;6.78;2.47;;;;;;;4.52;70.29;101730.91;6048817;28;20056;-71
2023/04/02 10:09:29;;;;;;;5.35;1.90;;;;;;;4.38;70.80;101717.66;6049272;28;20156;-70
2023/04/02 10:12:25;;;;;;;15.27;4.00;;;;;;;4.51;70.28;101734.44;6048804;28;20037;-70
2023/04/02 10:15:25;;;;;;;5.40;1.58;;;;;;;4.68;70.34;101737.03;6046866;28;20095;-70
2023/04/02 10:18:33;;;;;;;6.75;1.85;;;;;;;4.62;70.23;101734.72;6047828;28;20038;-70
2023/04/02 10:21:34;;;;;;;8.00;1.10;;;;;;;4.51;70.84;101733.63;6048884;28;20065;-71
2023/04/02 10:24:29;;;;;;;2.28;0.90;;;;;;;4.55;70.25;101733.38;6030824;28;20113;-71
2023/04/02 10:27:50;;;;;;;2.13;0.90;;;;;;;4.73;70.88;101755.16;6048692;28;20084;-71
2023/04/02 10:30:54;;;;;;;2.05;0.90;;;;;;;4.72;70.31;101758.72;6053301;28;20518;-71
2023/04/02 10:33:51;;;;;;;4.07;1.38;;;;;;;4.92;68.91;101744.50;6048218;28;20475;-71
2023/04/02 10:36:49;;;;;;;2.80;1.45;;;;;;;5.04;69.33;101759.59;6047259;28;20088;-71
2023/04/02 10:39:51;;;;;;;3.65;1.45;;;;;;;5.12;68.06;101742.47;6031311;28;20041;-71
2023/04/02 10:43:03;;;;;;;2.97;1.10;;;;;;;5.39;68.82;101750.56;6031783;28;20033;-71
2023/04/02 10:46:02;;;;;;;2.15;0.90;;;;;;;5.53;66.25;101748.00;6030684;28;20398;-71
2023/04/02 10:49:19;;;;;;;4.13;1.33;;;;;;;5.59;65.86;101752.91;6049436;28;20091;-71
2023/04/02 10:52:26;;;;;;;3.60;0.85;;;;;;;5.58;65.39;101761.72;6027765;28;20042;-71
2023/04/02 10:55:25;;;;;;;3.40;1.02;;;;;;;5.48;65.10;101786.88;6025304;28;20038;-71
2023/04/02 10:58:29;;;;;;;1.52;0.98;;;;;;;5.64;64.61;101771.06;6028670;28;20041;-71
2023/04/02 11:01:28;;;;;;;2.40;0.70;;;;;;;5.69;63.99;101761.97;6025317;28;20030;-71
2023/04/02 11:04:36;;;;;;;5.22;2.08;;;;;;;5.97;64.85;101779.66;6040898;28;20025;-71
2023/04/02 11:07:42;;;;;;;2.60;0.63;;;;;;;6.21;62.55;101766.81;6028612;28;20038;-72
2023/04/02 11:10:39;;;;;;;3.03;0.90;;;;;;;6.12;63.33;101772.63;6062903;28;20536;-71
2023/04/02 11:14:00;;;;;;;4.03;1.40;;;;;;;6.47;64.57;101758.16;6061351;28;20926;-71
2023/04/02 11:16:58;;;;;;;1.75;0.85;;;;;;;6.16;63.03;101785.53;6047265;28;20096;-71
2023/04/02 11:19:54;;;;;;;2.15;1.08;;;;;;;6.25;63.67;101784.13;6062774;28;20080;-72
2023/04/02 11:23:10;;;;;;;2.80;1.10;;;;;;;6.03;63.07;101781.09;6046770;28;20471;-71
2023/04/02 11:26:40;;;;;;;12.65;3.20;;;;;;;6.12;64.16;101799.81;6031020;28;20038;-70
2023/04/02 11:29:37;;;;;;;3.58;1.15;;;;;;;6.28;63.73;101791.81;6055017;28;20038;-71
2023/04/02 11:32:44;;;;;;;4.30;1.10;;;;;;;6.40;62.03;101791.09;6053105;28;20049;-71
2023/04/02 11:35:39;;;;;;;2.63;0.90;;;;;;;6.13;62.13;101790.13;6039732;28;20415;-71
2023/04/02 11:38:43;;;;;;;16.60;7.40;;;;;;;7.01;61.36;101804.81;6051724;28;20133;-70
2023/04/02 11:42:03;;;;;;;5.05;1.63;;;;;;;7.17;62.98;101802.91;6050682;28;20435;-71
2023/04/02 11:45:23;;;;;;;2.83;1.20;;;;;;;6.84;59.56;101805.03;6047063;28;20105;-71
2023/04/02 11:48:20;;;;;;;4.05;1.50;;;;;;;6.85;60.53;101817.25;6052114;28;20026;-71
2023/04/02 11:51:19;;;;;;;4.30;1.40;;;;;;;7.11;60.19;101818.28;6056478;28;20033;-72
2023/04/02 11:54:25;;;;;;;3.55;1.00;;;;;;;7.45;61.31;101811.69;6060081;28;20065;-71
2023/04/02 11:58:06;;;;;;;5.00;2.72;;;;;;;7.20;59.06;101817.72;6078561;28;20080;-70
2023/04/02 12:01:04;;;;;;;3.55;1.45;;;;;;;7.25;60.48;101833.25;6043039;28;20048;-70
2023/04/02 12:04:05;;;;;;;6.82;1.85;;;;;;;6.96;60.03;101824.50;6050712;28;20479;-71
2023/04/02 12:07:25;;;;;;;6.07;1.70;;;;;;;7.27;60.86;101826.06;6050700;28;20057;-71
2023/04/02 12:10:23;;;;;;;4.50;1.30;;;;;;;7.43;60.37;101813.59;6066153;28;20068;-71
2023/04/02 12:13:46;;;;;;;5.00;2.03;;;;;;;7.43;61.07;101832.91;6032611;28;20038;-71
2023/04/02 12:16:41;;;;;;;3.92;1.27;;;;;;;7.29;60.82;101824.16;6041492;28;20050;-71
2023/04/02 12:19:37;;;;;;;2.13;0.97;;;;;;;7.37;61.02;101845.63;6051104;28;20049;-71
2023/04/02 12:22:33;;;;;;;2.30;0.90;;;;;;;7.42;61.30;101838.31;6066285;28;20117;-71
2023/04/02 12:25:31;;;;;;;6.03;2.92;;;;;;;7.05;62.19;101840.63;6032813;28;20038;-71
2023/04/02 12:28:27;;;;;;;4.05;1.13;;;;;;;6.78;62.02;101825.66;6050721;28;20033;-71
2023/04/02 12:31:23;;;;;;;3.55;1.30;;;;;;;7.17;60.65;101845.09;6060772;28;20029;-71
2023/04/02 12:34:21;;;;;;;4.75;0.90;;;;;;;6.96;60.26;101835.91;6049968;28;20380;-71
2023/04/02 12:37:22;;;;;;;2.83;0.90;;;;;;;6.57;60.87;101830.47;6064845;28;20033;-71
2023/04/02 12:40:17;;;;;;;7.05;1.48;;;;;;;7.28;61.57;101836.53;6056430;28;20419;-71
2023/04/02 12:43:26;;;;;;;4.28;1.17;;;;;;;8.07;61.86;101832.16;6059233;28;20030;-71
2023/04/02 12:46:24;;;;;;;3.28;0.90;;;;;;;8.25;57.46;101830.97;6050309;28;20764;-71
2023/04/02 12:49:19;;;;;;;2.83;0.82;;;;;;;8.44;56.70;101835.00;6035853;28;20037;-71
2023/04/02 12:52:17;;;;;;;3.07;0.97;;;;;;;8.93;56.05;101820.09;6053026;28;20036;-71
2023/04/02 12:55:19;;;;;;;1.23;0.60;;;;;;;9.23;54.55;101819.69;6049619;28;20466;-71
2023/04/02 12:58:25;;;;;;;3.05;1.13;;;;;;;9.77;51.28;101831.56;6032952;28;20030;-72
2023/04/02 13:01:26;;;;;;;2.88;1.10;;;;;;;10.17;50.11;101813.56;6048285;28;20088;-72
2023/04/02 13:04:22;;;;;;;3.53;1.77;;;;;;;9.53;55.31;101831.56;6064610;28;20041;-71
2023/04/02 13:07:19;;;;;;;3.43;0.90;;;;;;;8.91;55.34;101824.66;6052484;28;20084;-71
2023/04/02 13:10:24;;;;;;;2.17;0.90;;;;;;;8.30;57.38;101836.81;6038741;28;20557;-71
2023/04/02 13:13:26;;;;;;;4.00;1.58;;;;;;;8.57;57.69;101830.56;6031756;28;20680;-71
2023/04/02 13:16:26;;;;;;;3.88;1.20;;;;;;;8.25;56.32;101846.81;6040232;28;20034;-71
2023/04/02 13:19:27;;;;;;;1.67;0.68;;;;;;;7.73;58.07;101838.00;6049811;28;20095;-71
2023/04/02 13:22:29;;;;;;;3.10;0.82;;;;;;;7.49;57.92;101844.88;6049331;28;20091;-71
2023/04/02 13:25:35;;;;;;;6.97;2.63;;;;;;;7.69;57.96;101845.25;6045413;28;20398;-71
2023/04/02 13:28:30;;;;;;;3.80;1.52;;;;;;;7.75;58.57;101847.50;6032334;28;20041;-71
2023/04/02 13:31:26;;;;;;;5.07;1.40;;;;;;;7.78;58.11;101851.75;6049708;28;20038;-70
2023/04/02 13:34:22;;;;;;;4.28;0.60;;;;;;;7.95;57.60;101861.19;6049011;28;20038;-72
2023/04/02 13:37:17;;;;;;;4.78;2.17;;;;;;;8.00;56.84;101846.75;6049982;28;20065;-71
2023/04/02 13:40:15;;;;;;;2.83;1.10;;;;;;;7.64;57.11;101857.06;6049478;28;20084;-70
2023/04/02 13:43:18;;;;;;;4.75;1.10;;;;;;;7.71;56.92;101866.31;6049295;28;20060;-70
2023/04/02 13:46:25;;;;;;;1.75;0.65;;;;;;;8.25;56.50;101857.38;6049427;28;20125;-71
2023/04/02 13:49:21;;;;;;;1.52;0.50;;;;;;;8.99;55.24;101849.59;6058901;28;20044;-71
2023/04/02 13:52:16;;;;;;;3.22;0.90;;;;;;;8.53;53.88;101847.63;6049110;28;20045;-71
2023/04/02 13:55:12;;;;;;;6.77;2.57;;;;;;;8.57;55.02;101864.94;6048194;28;20041;-71
2023/04/02 13:58:09;;;;;;;2.75;0.70;;;;;;;7.95;56.20;101871.75;6049500;28;20402;-71
2023/04/02 14:01:04;;;;;;;5.90;2.00;;;;;;;7.63;57.18;101872.09;6049299;28;20537;-71
2023/04/02 14:04:01;;;;;;;20.27;7.68;;;;;;;8.14;56.97;101875.75;6047352;28;20086;-71
2023/04/02 14:07:34;;;;;;;5.30;1.70;;;;;;;8.83;56.28;101861.38;6053786;28;20465;-72
2023/04/02 14:10:42;;;;;;;2.05;0.50;;;;;;;9.19;53.85;101885.22;6045039;28;20096;-71
2023/04/02 14:13:43;;;;;;;3.03;1.08;;;;;;;8.53;54.27;101896.06;6062166;28;20084;-71